createdAt,value
2023-04-16T00:01:35.928Z,7.37
2023-04-16T00:04:03.269Z,7.40
2023-04-16T00:06:32.048Z,7.36
2023-04-16T00:08:58.612Z,7.29
2023-04-16T00:11:25.407Z,6.95
2023-04-16T00:13:52.066Z,7.27
2023-04-16T00:16:18.704Z,6.93
2023-04-16T00:18:45.513Z,6.06
2023-04-16T00:21:12.318Z,7.06
2023-04-16T00:23:40.416Z,6.43
2023-04-16T00:26:06.987Z,6.88
2023-04-16T00:28:33.525Z,6.20
2023-04-16T00:31:01.557Z,7.04
2023-04-16T00:33:30.023Z,7.22
2023-04-16T00:35:56.653Z,7.04
2023-04-16T00:38:23.350Z,7.24
2023-04-16T00:40:51.391Z,7.30
2023-04-16T00:43:22.777Z,7.29
2023-04-16T00:45:49.512Z,6.93
2023-04-16T00:48:16.649Z,7.27
2023-04-16T00:50:43.425Z,7.25
2023-04-16T00:53:10.043Z,7.20
2023-04-16T00:55:37.117Z,7.31
2023-04-16T00:58:05.043Z,7.23
2023-04-16T01:00:31.657Z,7.25
2023-04-16T01:03:00.083Z,7.30
2023-04-16T01:05:26.974Z,7.28
2023-04-16T01:07:53.556Z,6.81
2023-04-16T01:10:20.274Z,7.12
2023-04-16T01:12:46.925Z,7.23
2023-04-16T01:15:14.999Z,7.21
2023-04-16T01:17:41.676Z,7.23
2023-04-16T01:20:08.866Z,7.11
2023-04-16T01:22:36.805Z,7.16
2023-04-16T01:25:04.015Z,7.20
2023-04-16T01:27:31.198Z,7.19
2023-04-16T01:29:57.816Z,7.21
2023-04-16T01:32:24.476Z,6.92
2023-04-16T01:34:51.087Z,6.93
2023-04-16T01:37:17.725Z,7.16
2023-04-16T01:39:45.760Z,7.08
2023-04-16T01:42:12.414Z,6.98
2023-04-16T01:44:38.993Z,6.59
2023-04-16T01:47:05.711Z,5.66
2023-04-16T01:49:33.771Z,4.44
2023-04-16T01:52:00.634Z,4.08
2023-04-16T01:54:27.272Z,4.98
2023-04-16T01:56:55.618Z,6.59
2023-04-16T01:59:22.250Z,6.87
2023-04-16T02:01:48.920Z,6.93
2023-04-16T02:04:15.710Z,6.75
2023-04-16T02:06:42.312Z,6.94
2023-04-16T02:09:09.155Z,6.99
2023-04-16T02:11:35.837Z,6.78
2023-04-16T02:14:03.756Z,6.85
2023-04-16T02:16:30.542Z,6.97
2023-04-16T02:18:57.140Z,7.00
2023-04-16T02:21:23.807Z,7.02
2023-04-16T02:23:51.875Z,7.02
2023-04-16T02:26:18.712Z,7.00
2023-04-16T02:28:45.463Z,7.05
2023-04-16T02:31:13.431Z,6.99
2023-04-16T02:33:40.071Z,7.09
2023-04-16T02:36:07.709Z,7.07
2023-04-16T02:38:34.328Z,7.07
2023-04-16T02:41:01.006Z,7.06
2023-04-16T02:43:27.635Z,7.03
2023-04-16T02:45:54.249Z,6.82
2023-04-16T02:48:22.218Z,7.02
2023-04-16T02:50:48.780Z,7.01
2023-04-16T02:53:15.345Z,6.39
2023-04-16T02:55:41.964Z,5.87
2023-04-16T02:58:08.542Z,6.51
2023-04-16T03:00:35.428Z,6.02
2023-04-16T03:03:02.409Z,6.69
2023-04-16T03:05:30.384Z,6.91
2023-04-16T03:07:57.275Z,6.94
2023-04-16T03:10:24.614Z,6.94
2023-04-16T03:12:51.249Z,6.66
2023-04-16T03:15:18.247Z,6.55
2023-04-16T03:17:44.935Z,6.88
2023-04-16T03:20:12.152Z,6.95
2023-04-16T03:22:40.410Z,6.94
2023-04-16T03:25:08.147Z,6.95
2023-04-16T03:27:35.371Z,6.96
2023-04-16T03:30:04.726Z,6.94
2023-04-16T03:32:31.361Z,6.98
2023-04-16T03:34:58.011Z,6.95
2023-04-16T03:37:24.594Z,6.95
2023-04-16T03:39:52.891Z,7.01
2023-04-16T03:42:19.516Z,7.00
2023-04-16T03:44:46.111Z,6.97
2023-04-16T03:47:12.728Z,6.94
2023-04-16T03:49:39.323Z,6.98
2023-04-16T03:52:06.158Z,6.96
2023-04-16T03:54:32.836Z,6.97
2023-04-16T03:57:01.128Z,7.01
2023-04-16T03:59:27.935Z,6.96
2023-04-16T04:01:54.565Z,6.99
2023-04-16T04:04:21.416Z,6.96
2023-04-16T04:06:48.244Z,6.92
2023-04-16T04:09:16.330Z,6.99
2023-04-16T04:11:43.290Z,7.00
2023-04-16T04:14:11.321Z,6.94
2023-04-16T04:16:37.983Z,6.91
2023-04-16T04:19:04.596Z,6.94
2023-04-16T04:21:31.931Z,6.94
2023-04-16T04:23:58.684Z,6.93
2023-04-16T04:26:25.557Z,6.92
2023-04-16T04:28:52.270Z,6.94
2023-04-16T04:31:20.357Z,6.90
2023-04-16T04:33:46.982Z,6.93
2023-04-16T04:36:13.617Z,6.89
2023-04-16T04:38:40.469Z,6.90
2023-04-16T04:41:07.109Z,6.94
2023-04-16T04:43:33.821Z,6.96
2023-04-16T04:46:00.524Z,6.96
2023-04-16T04:48:28.569Z,6.91
2023-04-16T04:50:55.375Z,6.90
2023-04-16T04:53:21.996Z,6.88
2023-04-16T04:55:52.341Z,6.91
2023-04-16T04:58:20.966Z,6.92
2023-04-16T05:00:47.565Z,6.94
2023-04-16T05:03:19.950Z,6.90
2023-04-16T05:05:48.182Z,6.89
2023-04-16T05:08:14.834Z,6.91
2023-04-16T05:10:41.438Z,6.89
2023-04-16T05:13:08.025Z,6.86
2023-04-16T05:15:34.608Z,6.89
2023-04-16T05:18:03.844Z,6.90
2023-04-16T05:20:30.896Z,6.90
2023-04-16T05:22:58.976Z,6.89
2023-04-16T05:25:25.671Z,6.89
2023-04-16T05:27:52.334Z,6.86
2023-04-16T05:30:19.159Z,6.90
2023-04-16T05:32:45.873Z,6.91
2023-04-16T05:35:13.529Z,6.74
2023-04-16T05:37:40.858Z,6.79
2023-04-16T05:40:10.631Z,6.75
2023-04-16T05:42:37.045Z,6.80
2023-04-16T05:45:04.936Z,6.81
2023-04-16T05:47:31.542Z,6.76
2023-04-16T05:49:58.131Z,6.75
2023-04-16T05:52:24.717Z,6.77
2023-04-16T05:54:51.337Z,6.77
2023-04-16T05:57:19.294Z,6.76
2023-04-16T05:59:45.875Z,6.81
2023-04-16T06:02:12.649Z,6.77
2023-04-16T06:04:39.323Z,6.75
2023-04-16T06:07:06.205Z,6.75
2023-04-16T06:09:32.797Z,6.73
2023-04-16T06:11:59.823Z,6.73
2023-04-16T06:14:27.769Z,6.74
2023-04-16T06:16:54.374Z,6.73
2023-04-16T06:19:20.982Z,6.71
2023-04-16T06:21:47.662Z,6.72
2023-04-16T06:24:14.279Z,6.74
2023-04-16T06:26:41.083Z,6.70
2023-04-16T06:29:07.944Z,6.71
2023-04-16T06:31:36.137Z,6.71
2023-04-16T06:34:02.771Z,6.71
2023-04-16T06:36:29.387Z,6.70
2023-04-16T06:38:56.086Z,6.66
2023-04-16T06:41:25.469Z,6.68
2023-04-16T06:43:52.554Z,6.70
2023-04-16T06:46:19.225Z,6.72
2023-04-16T06:48:47.562Z,6.73
2023-04-16T06:51:14.260Z,6.70
2023-04-16T06:53:42.423Z,6.68
2023-04-16T06:56:09.093Z,6.69
2023-04-16T06:58:36.324Z,6.72
2023-04-16T07:01:05.698Z,6.71
2023-04-16T07:03:32.558Z,6.70
2023-04-16T07:06:00.585Z,6.72
2023-04-16T07:08:27.270Z,6.71
2023-04-16T07:10:54.334Z,6.62
2023-04-16T07:13:21.586Z,5.72
2023-04-16T07:15:48.290Z,6.06
2023-04-16T07:18:14.944Z,6.48
2023-04-16T07:20:41.614Z,6.61
2023-04-16T07:23:09.628Z,6.66
2023-04-16T07:25:36.220Z,6.68
2023-04-16T07:28:03.839Z,6.68
2023-04-16T07:30:34.202Z,6.66
2023-04-16T07:33:03.245Z,6.33
2023-04-16T07:35:30.388Z,6.43
2023-04-16T07:37:57.219Z,5.79
2023-04-16T07:40:25.410Z,5.89
2023-04-16T07:42:52.321Z,6.50
2023-04-16T07:45:19.389Z,6.61
2023-04-16T07:47:46.093Z,6.43
2023-04-16T07:50:12.997Z,6.51
2023-04-16T07:52:41.377Z,6.62
2023-04-16T07:55:08.640Z,6.19
2023-04-16T07:57:36.831Z,5.70
2023-04-16T08:00:06.964Z,5.92
2023-04-16T08:02:33.826Z,6.10
2023-04-16T08:05:00.823Z,6.05
2023-04-16T08:07:27.605Z,6.41
2023-04-16T08:09:54.583Z,6.51
2023-04-16T08:12:21.318Z,6.45
2023-04-16T08:14:49.579Z,6.54
2023-04-16T08:17:16.372Z,6.60
2023-04-16T08:19:43.953Z,6.10
2023-04-16T08:22:10.727Z,6.28
2023-04-16T08:24:37.363Z,6.52
2023-04-16T08:27:15.410Z,6.58
2023-04-16T08:29:44.845Z,5.93
2023-04-16T08:32:12.906Z,6.28
2023-04-16T08:34:39.513Z,6.54
2023-04-16T08:37:06.104Z,6.54
2023-04-16T08:39:32.993Z,6.63
2023-04-16T08:42:02.461Z,6.65
2023-04-16T08:44:32.510Z,6.65
2023-04-16T08:46:59.673Z,6.70
2023-04-16T08:49:28.263Z,6.65
2023-04-16T08:51:56.355Z,6.64
2023-04-16T08:54:38.813Z,6.67
2023-04-16T08:57:07.046Z,6.67
2023-04-16T08:59:34.540Z,6.14
2023-04-16T09:02:02.089Z,5.71
2023-04-16T09:04:31.920Z,5.86
2023-04-16T09:06:58.862Z,6.09
2023-04-16T09:09:26.795Z,6.13
2023-04-16T09:11:54.129Z,6.56
2023-04-16T09:14:21.998Z,6.67
2023-04-16T09:16:49.335Z,6.11
2023-04-16T09:19:16.403Z,5.83
2023-04-16T09:21:47.312Z,5.56
2023-04-16T09:24:14.089Z,5.93
2023-04-16T09:26:41.757Z,5.57
2023-04-16T09:29:09.877Z,5.98
2023-04-16T09:31:36.935Z,6.24
2023-04-16T09:34:04.981Z,5.89
2023-04-16T09:36:32.678Z,5.87
2023-04-16T09:39:01.323Z,5.82
2023-04-16T09:41:29.069Z,5.94
2023-04-16T09:43:57.577Z,6.34
2023-04-16T09:46:25.530Z,5.93
2023-04-16T09:48:52.230Z,6.43
2023-04-16T09:51:18.881Z,6.30
2023-04-16T09:53:45.660Z,6.39
2023-04-16T09:56:13.804Z,6.55
2023-04-16T09:58:41.366Z,6.52
2023-04-16T10:01:13.905Z,6.87
2023-04-16T10:03:41.122Z,6.73
2023-04-16T10:06:13.203Z,6.00
2023-04-16T10:08:43.208Z,6.47
2023-04-16T10:11:10.715Z,7.11
2023-04-16T10:13:38.643Z,7.04
2023-04-16T10:16:06.942Z,7.24
2023-04-16T10:18:34.884Z,6.83
2023-04-16T10:21:02.371Z,6.68
2023-04-16T10:23:29.647Z,6.74
2023-04-16T10:25:57.726Z,6.79
2023-04-16T10:28:24.758Z,6.79
2023-04-16T10:30:53.693Z,6.86
2023-04-16T10:33:22.715Z,6.78
2023-04-16T10:36:01.384Z,6.78
2023-04-16T10:38:34.080Z,6.92
2023-04-16T10:41:03.045Z,6.90
2023-04-16T10:43:30.762Z,6.85
2023-04-16T10:46:17.785Z,6.93
2023-04-16T10:48:49.958Z,7.03
2023-04-16T10:51:26.140Z,6.97
2023-04-16T10:53:54.292Z,7.12
2023-04-16T10:56:24.809Z,6.68
2023-04-16T10:58:53.325Z,6.82
2023-04-16T11:01:30.422Z,6.93
2023-04-16T11:03:59.349Z,7.27
2023-04-16T11:06:27.719Z,7.40
2023-04-16T11:08:55.397Z,7.06
2023-04-16T11:11:22.569Z,6.84
2023-04-16T11:13:49.667Z,6.76
2023-04-16T11:16:16.908Z,6.73
2023-04-16T11:18:51.758Z,6.93
2023-04-16T11:21:19.775Z,7.07
2023-04-16T11:23:48.488Z,6.94
2023-04-16T11:26:26.005Z,6.78
2023-04-16T11:28:54.367Z,6.85
2023-04-16T11:31:23.381Z,6.70
2023-04-16T11:33:51.723Z,6.82
2023-04-16T11:36:18.604Z,6.82
2023-04-16T11:38:46.877Z,7.06
2023-04-16T11:41:19.851Z,7.06
2023-04-16T11:43:46.498Z,7.08
2023-04-16T11:46:24.550Z,7.03
2023-04-16T11:48:56.109Z,6.98
2023-04-16T11:51:23.522Z,7.11
2023-04-16T11:53:52.787Z,6.89
2023-04-16T11:56:27.485Z,7.15
2023-04-16T11:59:08.651Z,7.18
2023-04-16T12:01:36.307Z,7.18
2023-04-16T12:04:04.657Z,7.40
2023-04-16T12:06:32.756Z,7.25
2023-04-16T12:08:59.462Z,7.16
2023-04-16T12:11:39.323Z,7.24
2023-04-16T12:14:09.996Z,7.17
2023-04-16T12:16:36.825Z,7.18
2023-04-16T12:19:05.657Z,7.20
2023-04-16T12:21:39.678Z,7.22
2023-04-16T12:24:07.104Z,7.22
2023-04-16T12:26:44.586Z,7.25
2023-04-16T12:29:16.034Z,7.31
2023-04-16T12:31:42.766Z,7.40
2023-04-16T12:34:10.778Z,7.23
2023-04-16T12:36:38.122Z,7.24
2023-04-16T12:39:05.204Z,7.03
2023-04-16T12:41:31.802Z,6.93
2023-04-16T12:44:07.156Z,7.07
2023-04-16T12:46:33.777Z,7.31
2023-04-16T12:49:00.438Z,6.94
2023-04-16T12:51:28.490Z,7.07
2023-04-16T12:53:55.497Z,7.18
2023-04-16T12:56:22.273Z,7.24
2023-04-16T12:58:51.672Z,7.28
2023-04-16T13:01:18.759Z,7.32
2023-04-16T13:03:45.954Z,7.32
2023-04-16T13:06:13.236Z,7.30
2023-04-16T13:08:41.423Z,7.29
2023-04-16T13:11:08.724Z,6.86
2023-04-16T13:13:35.374Z,6.73
2023-04-16T13:16:04.141Z,7.07
2023-04-16T13:18:30.832Z,7.19
2023-04-16T13:20:57.930Z,7.32
2023-04-16T13:23:24.541Z,7.26
2023-04-16T13:25:53.162Z,7.29
2023-04-16T13:28:20.099Z,7.30
2023-04-16T13:30:47.155Z,7.29
2023-04-16T13:33:13.960Z,7.06
2023-04-16T13:35:40.549Z,7.20
2023-04-16T13:38:07.150Z,6.95
2023-04-16T13:40:33.773Z,6.90
2023-04-16T13:43:01.769Z,6.87
2023-04-16T13:45:28.692Z,6.92
2023-04-16T13:47:56.305Z,6.76
2023-04-16T13:50:23.338Z,6.92
2023-04-16T13:52:49.922Z,6.86
2023-04-16T13:55:19.042Z,7.15
2023-04-16T13:57:46.278Z,7.23
2023-04-16T14:00:16.110Z,7.27
2023-04-16T14:02:43.297Z,7.24
2023-04-16T14:05:10.047Z,7.34
2023-04-16T14:07:37.509Z,7.35
2023-04-16T14:10:04.591Z,7.36
2023-04-16T14:12:32.444Z,7.41
2023-04-16T14:14:59.101Z,7.40
2023-04-16T14:17:27.112Z,7.40
2023-04-16T14:19:53.728Z,7.43
2023-04-16T14:22:20.401Z,7.36
2023-04-16T14:24:46.998Z,7.41
2023-04-16T14:27:13.611Z,7.43
2023-04-16T14:29:41.237Z,7.42
2023-04-16T14:32:08.086Z,7.49
2023-04-16T14:34:36.222Z,7.25
2023-04-16T14:37:02.902Z,7.14
2023-04-16T14:39:29.852Z,7.46
2023-04-16T14:41:56.524Z,7.50
2023-04-16T14:44:23.367Z,6.75
2023-04-16T14:46:49.987Z,7.24
2023-04-16T14:49:17.010Z,7.45
2023-04-16T14:51:46.234Z,7.47
2023-04-16T14:54:12.874Z,7.18
2023-04-16T14:56:39.513Z,7.48
2023-04-16T14:59:06.770Z,7.49
2023-04-16T15:01:34.528Z,7.50
2023-04-16T15:04:02.888Z,7.54
2023-04-16T15:06:29.750Z,7.56
2023-04-16T15:08:57.775Z,7.56
2023-04-16T15:11:24.427Z,7.54
2023-04-16T15:13:51.088Z,7.57
2023-04-16T15:16:17.942Z,7.56
2023-04-16T15:18:44.628Z,7.58
2023-04-16T15:21:12.753Z,7.54
2023-04-16T15:23:39.536Z,7.53
2023-04-16T15:26:07.666Z,7.52
2023-04-16T15:28:34.266Z,6.91
2023-04-16T15:31:01.024Z,7.39
2023-04-16T15:33:27.919Z,7.48
2023-04-16T15:35:54.500Z,7.51
2023-04-16T15:38:21.445Z,7.53
2023-04-16T15:40:48.080Z,7.13
2023-04-16T15:43:16.770Z,6.68
2023-04-16T15:45:43.392Z,7.25
2023-04-16T15:48:10.161Z,7.45
2023-04-16T15:50:36.918Z,7.26
2023-04-16T15:53:03.570Z,7.44
2023-04-16T15:55:30.420Z,7.49
2023-04-16T15:57:57.030Z,7.52
2023-04-16T16:00:25.254Z,7.50
2023-04-16T16:02:52.026Z,7.49
2023-04-16T16:05:18.841Z,7.51
2023-04-16T16:07:45.637Z,7.51
2023-04-16T16:10:13.305Z,7.53
2023-04-16T16:12:40.756Z,7.56
2023-04-16T16:15:08.317Z,7.56
2023-04-16T16:17:36.803Z,7.54
2023-04-16T16:20:04.339Z,7.54
2023-04-16T16:22:30.975Z,7.51
2023-04-16T16:24:58.602Z,7.53
2023-04-16T16:27:25.522Z,7.54
2023-04-16T16:29:52.192Z,7.54
2023-04-16T16:32:18.879Z,7.53
2023-04-16T16:34:46.850Z,7.56
2023-04-16T16:37:13.452Z,7.56
2023-04-16T16:39:40.180Z,7.55
2023-04-16T16:42:09.032Z,7.55
2023-04-16T16:44:35.638Z,7.55
2023-04-16T16:47:02.270Z,7.55
2023-04-16T16:49:29.094Z,7.54
2023-04-16T16:51:57.656Z,7.59
2023-04-16T16:54:24.256Z,7.54
2023-04-16T16:56:50.816Z,7.55
2023-04-16T16:59:17.407Z,7.55
2023-04-16T17:01:43.998Z,7.54
2023-04-16T17:04:10.706Z,7.56
2023-04-16T17:06:38.783Z,7.57
2023-04-16T17:09:07.172Z,7.54
2023-04-16T17:11:33.809Z,7.54
2023-04-16T17:14:00.397Z,7.56
2023-04-16T17:16:27.035Z,7.56
2023-04-16T17:18:53.685Z,7.57
2023-04-16T17:21:20.322Z,7.61
2023-04-16T17:23:46.929Z,7.59
2023-04-16T17:26:14.995Z,7.55
2023-04-16T17:28:41.604Z,7.54
2023-04-16T17:31:08.582Z,7.54
2023-04-16T17:33:35.519Z,7.58
2023-04-16T17:36:02.153Z,7.57
2023-04-16T17:38:28.810Z,7.58
2023-04-16T17:40:57.050Z,7.58
2023-04-16T17:43:25.290Z,7.58
2023-04-16T17:45:51.983Z,7.55
2023-04-16T17:48:18.672Z,7.59
2023-04-16T17:50:45.350Z,7.60
2023-04-16T17:53:12.298Z,7.56
2023-04-16T17:55:38.893Z,7.54
2023-04-16T17:58:05.723Z,7.55
2023-04-16T18:00:33.737Z,7.55
2023-04-16T18:03:00.513Z,7.53
2023-04-16T18:05:27.554Z,7.56
2023-04-16T18:07:55.381Z,7.56
2023-04-16T18:10:22.241Z,7.55
2023-04-16T18:12:48.909Z,7.18
2023-04-16T18:15:15.705Z,7.32
2023-04-16T18:17:43.739Z,7.37
2023-04-16T18:20:12.513Z,7.51
2023-04-16T18:22:39.093Z,7.56
2023-04-16T18:25:06.697Z,7.56
2023-04-16T18:27:33.369Z,7.29
2023-04-16T18:29:59.972Z,7.30
2023-04-16T18:32:30.642Z,7.50
2023-04-16T18:34:59.100Z,7.48
2023-04-16T18:37:25.986Z,7.52
2023-04-16T18:39:52.649Z,7.54
2023-04-16T18:42:19.271Z,7.19
2023-04-16T18:44:51.586Z,7.36
2023-04-16T18:47:18.386Z,7.48
2023-04-16T18:49:45.011Z,7.21
2023-04-16T18:52:13.088Z,7.43
2023-04-16T18:54:40.862Z,7.47
2023-04-16T18:57:07.470Z,7.56
2023-04-16T18:59:34.099Z,7.03
2023-04-16T19:02:00.704Z,7.43
2023-04-16T19:04:27.390Z,7.51
2023-04-16T19:06:54.047Z,7.53
2023-04-16T19:09:24.782Z,7.56
2023-04-16T19:11:51.559Z,7.57
2023-04-16T19:14:18.257Z,7.50
2023-04-16T19:16:44.883Z,7.50
2023-04-16T19:19:11.870Z,7.58
2023-04-16T19:21:38.699Z,7.52
2023-04-16T19:24:05.958Z,7.56
2023-04-16T19:26:33.916Z,7.54
2023-04-16T19:29:00.649Z,7.58
2023-04-16T19:31:27.551Z,6.95
2023-04-16T19:33:54.183Z,6.57
2023-04-16T19:36:20.888Z,6.97
2023-04-16T19:38:47.526Z,7.29
2023-04-16T19:41:14.153Z,7.35
2023-04-16T19:43:42.082Z,7.44
2023-04-16T19:46:09.068Z,7.49
2023-04-16T19:48:36.339Z,7.55
2023-04-16T19:51:05.969Z,7.55
2023-04-16T19:53:34.136Z,7.54
2023-04-16T19:56:01.018Z,7.47
2023-04-16T19:58:27.966Z,7.05
2023-04-16T20:00:56.412Z,7.36
2023-04-16T20:03:23.153Z,7.47
2023-04-16T20:05:50.056Z,6.81
2023-04-16T20:08:16.774Z,7.10
2023-04-16T20:10:43.490Z,7.37
2023-04-16T20:13:12.049Z,7.34
2023-04-16T20:15:38.658Z,6.90
2023-04-16T20:18:08.463Z,7.36
2023-04-16T20:20:36.430Z,7.45
2023-04-16T20:23:03.069Z,7.53
2023-04-16T20:25:29.989Z,7.57
2023-04-16T20:27:56.594Z,7.12
2023-04-16T20:30:28.750Z,7.37
2023-04-16T20:32:56.227Z,7.49
2023-04-16T20:35:24.318Z,7.52
2023-04-16T20:37:50.924Z,7.54
2023-04-16T20:40:17.698Z,7.56
2023-04-16T20:42:46.372Z,7.61
2023-04-16T20:45:13.352Z,7.58
2023-04-16T20:47:40.017Z,7.59
2023-04-16T20:50:07.880Z,7.59
2023-04-16T20:52:36.472Z,7.59
2023-04-16T20:55:03.214Z,7.62
2023-04-16T20:57:31.911Z,7.62
2023-04-16T20:59:58.623Z,7.63
2023-04-16T21:02:25.637Z,7.64
2023-04-16T21:04:52.530Z,7.64
2023-04-16T21:07:19.222Z,7.65
2023-04-16T21:09:47.146Z,7.67
2023-04-16T21:12:13.800Z,7.69
2023-04-16T21:14:40.384Z,7.67
2023-04-16T21:17:07.043Z,7.68
2023-04-16T21:19:33.638Z,7.70
2023-04-16T21:22:02.441Z,7.71
2023-04-16T21:24:29.139Z,7.71
2023-04-16T21:26:57.325Z,7.72
2023-04-16T21:29:23.957Z,7.72
2023-04-16T21:31:50.663Z,7.73
2023-04-16T21:34:17.337Z,7.73
2023-04-16T21:36:44.157Z,7.75
2023-04-16T21:39:11.393Z,7.76
2023-04-16T21:41:38.337Z,7.75
2023-04-16T21:44:06.370Z,7.76
2023-04-16T21:46:33.070Z,7.76
2023-04-16T21:48:59.724Z,7.77
2023-04-16T21:51:29.782Z,7.78
2023-04-16T21:53:56.384Z,7.79
2023-04-16T21:56:23.077Z,7.80
2023-04-16T21:58:49.742Z,7.77
2023-04-16T22:01:17.790Z,7.81
2023-04-16T22:03:47.439Z,7.84
2023-04-16T22:06:14.184Z,7.82
2023-04-16T22:08:40.737Z,7.81
2023-04-16T22:11:07.327Z,7.83
2023-04-16T22:13:33.906Z,7.82
2023-04-16T22:16:01.357Z,7.84
2023-04-16T22:18:32.994Z,7.83
2023-04-16T22:21:00.554Z,7.82
2023-04-16T22:23:27.141Z,7.83
2023-04-16T22:25:55.324Z,7.83
2023-04-16T22:28:22.167Z,7.85
2023-04-16T22:30:48.733Z,7.84
2023-04-16T22:33:15.622Z,7.85
2023-04-16T22:35:43.645Z,7.86
2023-04-16T22:38:10.455Z,7.85
2023-04-16T22:40:37.062Z,7.87
2023-04-16T22:43:03.694Z,7.86
2023-04-16T22:45:30.338Z,7.86
2023-04-16T22:47:56.950Z,7.88
2023-04-16T22:50:23.601Z,7.86
2023-04-16T22:52:51.532Z,7.90
2023-04-16T22:55:18.271Z,7.88
2023-04-16T22:57:44.855Z,7.87
2023-04-16T23:00:16.163Z,7.87
2023-04-16T23:02:43.225Z,7.86
2023-04-16T23:05:10.484Z,7.86
2023-04-16T23:07:37.273Z,7.89
2023-04-16T23:10:08.213Z,7.89
2023-04-16T23:12:37.233Z,7.88
2023-04-16T23:15:06.308Z,7.87
2023-04-16T23:17:33.853Z,7.67
2023-04-16T23:20:00.589Z,7.60
2023-04-16T23:22:27.570Z,7.79
2023-04-16T23:24:54.244Z,7.83
2023-04-16T23:27:22.239Z,7.87
2023-04-16T23:29:48.870Z,7.89
2023-04-16T23:32:15.447Z,7.66
2023-04-16T23:34:42.034Z,7.81
2023-04-16T23:37:08.686Z,7.82
2023-04-16T23:39:35.275Z,7.83
2023-04-16T23:42:01.847Z,7.86
2023-04-16T23:44:29.804Z,7.86
2023-04-16T23:46:56.514Z,7.85
2023-04-16T23:49:23.238Z,7.85
2023-04-16T23:51:49.950Z,7.85
2023-04-16T23:54:17.104Z,7.83
2023-04-16T23:56:43.671Z,7.83
2023-04-16T23:59:13.336Z,7.86
